Time;durP1;ratioP1;P1;durP2;ratioP2;P2;SDS_P1;SDS_P2;PMS_P1;PMS_P2;Temp;Humidity;BMP_temperature;BMP_pressure;BME280_temperature;BME280_humidity;BME280_pressure;Samples;Min_cycle;Max_cycle;Signal;HPM_P1;HPM_P2
2022/03/16 00:02:01;;;;;;;134.40;89.60;;;;;;;6.10;60.13;99328.33;105014;1271;62203;-77
2022/03/16 00:04:28;;;;;;;134.40;89.70;;;;;;;6.11;60.28;99329.67;105228;1270;62181;-76
2022/03/16 00:06:54;;;;;;;129.20;89.70;;;;;;;6.10;60.50;99332.22;105279;1269;62150;-76
2022/03/16 00:09:20;;;;;;;132.50;88.70;;;;;;;6.09;60.51;99334.18;105270;1270;62171;-77
2022/03/16 00:11:47;;;;;;;133.70;91.90;;;;;;;6.09;60.68;99334.03;105235;1270;69489;-76
2022/03/16 00:14:14;;;;;;;131.50;86.80;;;;;;;6.09;60.70;99334.51;105226;1270;62073;-77
2022/03/16 00:16:40;;;;;;;111.20;74.50;;;;;;;6.15;60.17;99329.52;105243;1270;62115;-77
2022/03/16 00:19:07;;;;;;;113.50;76.70;;;;;;;6.24;60.78;99343.26;105248;1270;62037;-76
2022/03/16 00:21:34;;;;;;;105.10;66.50;;;;;;;6.27;60.20;99338.70;105268;1270;62079;-77
2022/03/16 00:24:02;;;;;;;86.70;60.70;;;;;;;6.36;60.15;99338.12;105214;1270;69024;-77
2022/03/16 00:26:28;;;;;;;102.00;65.90;;;;;;;6.42;59.94;99354.83;105372;1270;73320;-77
2022/03/16 00:28:55;;;;;;;99.20;63.30;;;;;;;6.49;59.08;99353.10;105045;1270;62108;-75
2022/03/16 00:31:21;;;;;;;97.00;60.30;;;;;;;6.58;58.94;99354.44;105293;1270;62032;-75
2022/03/16 00:33:48;;;;;;;109.00;67.40;;;;;;;6.66;58.89;99359.59;105093;1273;61970;-77
2022/03/16 00:36:14;;;;;;;78.80;49.40;;;;;;;6.70;58.91;99362.05;105237;1270;62165;-77
2022/03/16 00:38:40;;;;;;;46.20;29.50;;;;;;;6.74;58.57;99358.14;105278;1270;62187;-74
2022/03/16 00:41:07;;;;;;;29.10;20.50;;;;;;;6.85;58.25;99354.68;104925;1273;62066;-75
2022/03/16 00:43:34;;;;;;;20.80;15.70;;;;;;;6.96;58.01;99357.67;105256;1270;62068;-77
2022/03/16 00:46:01;;;;;;;25.30;16.80;;;;;;;7.03;57.80;99357.52;105273;1270;76028;-76
2022/03/16 00:48:27;;;;;;;28.20;17.90;;;;;;;7.07;57.45;99358.56;105278;1270;62156;-76
2022/03/16 00:50:54;;;;;;;25.20;17.30;;;;;;;7.12;57.23;99358.01;104967;1270;62245;-78
2022/03/16 00:53:20;;;;;;;22.20;15.70;;;;;;;7.21;57.40;99356.30;105063;1270;255868;-77
2022/03/16 00:55:47;;;;;;;17.20;13.00;;;;;;;7.32;58.27;99357.92;105307;1270;62104;-75
2022/03/16 00:58:14;;;;;;;15.00;12.80;;;;;;;7.35;58.96;99352.14;104961;1270;76199;-75
2022/03/16 01:00:40;;;;;;;15.40;12.40;;;;;;;7.31;59.46;99343.82;105249;1270;62156;-77
2022/03/16 01:03:07;;;;;;;13.50;11.50;;;;;;;7.28;59.61;99342.91;105003;1271;62000;-76
2022/03/16 01:05:33;;;;;;;14.20;10.60;;;;;;;7.26;59.89;99339.62;105277;1270;61980;-76
2022/03/16 01:08:00;;;;;;;12.40;10.00;;;;;;;7.32;59.92;99338.30;105290;1270;61971;-75
2022/03/16 01:10:26;;;;;;;14.00;11.10;;;;;;;7.36;59.97;99338.29;105284;1270;62012;-76
2022/03/16 01:12:55;;;;;;;16.60;12.30;;;;;;;7.33;60.63;99335.77;105007;1271;62042;-76
2022/03/16 01:15:23;;;;;;;17.10;12.10;;;;;;;7.26;60.71;99331.70;105252;1270;73872;-76
2022/03/16 01:17:52;;;;;;;14.50;12.40;;;;;;;7.20;60.51;99327.21;105295;1270;62182;-77
2022/03/16 01:20:19;;;;;;;16.00;14.20;;;;;;;7.14;60.61;99321.29;105233;1270;62107;-77
2022/03/16 01:22:46;;;;;;;15.90;12.60;;;;;;;7.10;61.12;99323.78;105216;1270;74705;-76
2022/03/16 01:25:12;;;;;;;13.80;12.00;;;;;;;7.08;61.03;99319.84;105238;1270;70076;-76
2022/03/16 01:27:39;;;;;;;14.30;11.30;;;;;;;7.07;61.39;99314.23;105244;1270;74412;-76
2022/03/16 01:30:06;;;;;;;13.10;11.60;;;;;;;7.09;61.90;99312.56;105255;1270;62178;-76
2022/03/16 01:32:34;;;;;;;12.70;10.70;;;;;;;7.12;62.06;99308.87;105270;1270;62119;-77
2022/03/16 01:35:00;;;;;;;15.70;11.00;;;;;;;7.18;62.30;99307.35;105329;1270;76482;-77
2022/03/16 01:37:27;;;;;;;13.80;11.90;;;;;;;7.21;63.12;99305.25;105305;1270;69795;-77
2022/03/16 01:39:53;;;;;;;14.50;12.50;;;;;;;7.17;63.21;99301.73;105243;1270;61974;-77
2022/03/16 01:42:21;;;;;;;14.60;13.00;;;;;;;7.10;63.82;99299.58;105270;1270;61988;-77
2022/03/16 01:44:50;;;;;;;14.80;12.20;;;;;;;7.03;64.25;99296.55;105294;1270;62315;-77
2022/03/16 01:47:19;;;;;;;14.70;12.80;;;;;;;6.98;64.33;99293.63;105394;1269;75807;-76
2022/03/16 01:49:47;;;;;;;14.10;12.20;;;;;;;6.92;64.61;99295.15;105279;1270;68842;-76
2022/03/16 01:52:19;;;;;;;15.30;11.60;;;;;;;6.88;64.32;99295.16;105297;1270;73233;-76
2022/03/16 01:54:46;;;;;;;15.50;12.20;;;;;;;6.89;64.52;99296.34;105291;1270;62132;-76
2022/03/16 01:57:13;;;;;;;16.40;12.80;;;;;;;6.89;64.81;99295.46;105252;1270;62103;-77
2022/03/16 01:59:40;;;;;;;17.00;12.50;;;;;;;6.87;64.94;99296.45;105279;1270;76114;-77
2022/03/16 02:02:08;;;;;;;15.00;12.40;;;;;;;6.84;65.16;99297.63;105282;1270;69232;-77
2022/03/16 02:04:34;;;;;;;18.20;13.70;;;;;;;6.80;65.80;99294.11;105243;1271;73172;-77
2022/03/16 02:07:02;;;;;;;15.80;13.90;;;;;;;6.76;66.08;99291.84;105282;1270;62126;-77
2022/03/16 02:09:29;;;;;;;14.40;12.90;;;;;;;6.71;66.55;99293.49;105649;1270;62056;-77
2022/03/16 02:11:56;;;;;;;16.70;13.20;;;;;;;6.65;66.43;99288.82;105275;1270;75012;-76
2022/03/16 02:14:22;;;;;;;16.30;13.20;;;;;;;6.61;66.47;99288.31;105236;1270;69378;-76
2022/03/16 02:16:49;;;;;;;15.20;13.50;;;;;;;6.56;67.03;99290.80;105257;1270;74439;-76
2022/03/16 02:19:16;;;;;;;16.10;13.50;;;;;;;6.52;68.21;99290.80;105241;1270;62107;-77
2022/03/16 02:21:46;;;;;;;16.30;14.40;;;;;;;6.45;68.94;99293.07;105289;1270;63809;-77
2022/03/16 02:24:12;;;;;;;16.70;14.70;;;;;;;6.40;69.47;99291.36;105234;1270;75683;-76
2022/03/16 02:26:39;;;;;;;15.90;14.10;;;;;;;6.39;69.98;99290.18;105263;1269;71026;-76
2022/03/16 02:29:06;;;;;;;16.70;14.30;;;;;;;6.37;70.20;99287.08;105214;1270;73724;-77
2022/03/16 02:31:32;;;;;;;16.90;15.10;;;;;;;6.41;70.25;99287.27;105266;1270;62138;-76
2022/03/16 02:33:59;;;;;;;22.00;18.10;;;;;;;6.45;70.64;99286.91;105263;1270;62065;-76
2022/03/16 02:36:25;;;;;;;22.10;18.70;;;;;;;6.46;71.04;99286.15;105276;1270;62494;-76
2022/03/16 02:38:52;;;;;;;22.20;20.00;;;;;;;6.45;71.44;99283.89;105274;1270;68529;-77
2022/03/16 02:41:18;;;;;;;18.80;16.80;;;;;;;6.45;71.70;99279.68;105225;1269;61962;-77
2022/03/16 02:43:45;;;;;;;20.10;16.40;;;;;;;6.42;72.26;99279.08;105259;1270;62212;-77
2022/03/16 02:46:11;;;;;;;18.70;16.70;;;;;;;6.35;72.74;99277.28;105012;1270;62252;-77
2022/03/16 02:48:38;;;;;;;19.80;16.00;;;;;;;6.29;73.47;99276.34;105288;1270;62101;-77
2022/03/16 02:51:04;;;;;;;15.10;13.50;;;;;;;6.23;74.11;99270.24;105242;1270;62223;-77
2022/03/16 02:53:31;;;;;;;14.60;12.90;;;;;;;6.17;74.68;99264.15;105242;1270;62159;-76
2022/03/16 02:55:58;;;;;;;15.60;12.90;;;;;;;6.14;75.45;99259.02;105260;1270;62038;-76
2022/03/16 02:58:25;;;;;;;15.00;13.50;;;;;;;6.11;76.12;99255.77;105256;1270;62728;-76
2022/03/16 03:00:51;;;;;;;17.60;15.80;;;;;;;6.12;76.52;99262.78;105279;1270;62166;-76
2022/03/16 03:03:18;;;;;;;23.10;20.20;;;;;;;6.11;77.18;99261.05;105230;1270;62124;-76
2022/03/16 03:05:44;;;;;;;20.00;18.00;;;;;;;6.06;77.94;99258.80;105238;1270;62078;-76
2022/03/16 03:08:10;;;;;;;22.60;16.90;;;;;;;5.98;78.92;99256.02;105247;1270;62135;-76
2022/03/16 03:10:37;;;;;;;23.40;17.50;;;;;;;5.87;79.37;99248.71;105273;1269;62165;-76
2022/03/16 03:13:03;;;;;;;21.50;17.40;;;;;;;5.75;80.55;99243.90;105275;1270;62162;-76
2022/03/16 03:15:30;;;;;;;18.30;16.40;;;;;;;5.64;81.13;99237.89;105248;1270;62167;-77
2022/03/16 03:17:56;;;;;;;17.40;14.20;;;;;;;5.57;81.44;99243.65;105218;1270;62182;-77
2022/03/16 03:20:23;;;;;;;16.40;14.60;;;;;;;5.51;82.42;99243.21;105236;1269;62187;-76
2022/03/16 03:22:49;;;;;;;18.20;15.80;;;;;;;5.46;82.95;99239.35;105223;1270;62206;-76
2022/03/16 03:25:16;;;;;;;18.90;15.90;;;;;;;5.41;83.72;99237.61;105269;1270;62014;-76
2022/03/16 03:27:43;;;;;;;21.10;16.70;;;;;;;5.37;83.90;99240.26;105228;1270;62105;-75
2022/03/16 03:30:10;;;;;;;21.20;17.20;;;;;;;5.36;84.28;99240.64;105271;1270;62146;-75
2022/03/16 03:32:37;;;;;;;19.30;16.90;;;;;;;5.33;84.54;99251.35;105267;1269;62149;-76
2022/03/16 03:35:04;;;;;;;22.40;20.00;;;;;;;5.30;84.49;99251.80;105286;1270;62355;-76
2022/03/16 03:37:31;;;;;;;21.30;19.00;;;;;;;5.30;84.64;99256.95;105001;1273;76839;-76
2022/03/16 03:39:57;;;;;;;20.90;17.20;;;;;;;5.30;84.78;99265.74;104987;1273;69270;-76
2022/03/16 03:42:24;;;;;;;18.30;15.80;;;;;;;5.32;84.84;99267.08;105000;1273;62353;-75
2022/03/16 03:44:50;;;;;;;17.20;15.40;;;;;;;5.33;84.95;99260.16;104963;1273;62183;-76
2022/03/16 03:47:17;;;;;;;17.30;15.20;;;;;;;5.34;85.19;99261.02;104993;1273;62168;-76
2022/03/16 03:49:43;;;;;;;18.90;16.10;;;;;;;5.33;85.50;99256.45;105019;1273;62075;-75
2022/03/16 03:52:10;;;;;;;19.20;17.30;;;;;;;5.32;85.94;99248.73;104907;1274;62139;-76
2022/03/16 03:54:37;;;;;;;19.60;17.40;;;;;;;5.34;86.33;99247.80;105010;1273;62257;-76
2022/03/16 03:57:04;;;;;;;19.80;17.30;;;;;;;5.33;86.72;99246.23;104976;1273;62146;-77
2022/03/16 03:59:31;;;;;;;21.50;19.40;;;;;;;5.28;87.55;99246.41;104995;1273;62000;-76
2022/03/16 04:01:57;;;;;;;26.90;24.00;;;;;;;5.22;88.37;99224.31;104983;1273;77369;-76
2022/03/16 04:04:24;;;;;;;25.40;22.80;;;;;;;5.15;89.04;99232.70;105037;1273;69052;-76
2022/03/16 04:06:50;;;;;;;25.10;22.40;;;;;;;5.11;89.28;99234.48;105009;1273;62266;-76
2022/03/16 04:09:17;;;;;;;25.40;22.80;;;;;;;5.08;89.57;99235.83;104997;1272;62117;-76
2022/03/16 04:11:43;;;;;;;21.50;19.40;;;;;;;5.02;90.54;99231.98;105310;1270;62187;-76
2022/03/16 04:14:10;;;;;;;20.60;17.60;;;;;;;4.96;90.92;99239.64;105352;1270;62060;-77
2022/03/16 04:16:37;;;;;;;19.30;17.40;;;;;;;4.97;91.12;99245.76;105361;1271;69530;-75
2022/03/16 04:19:03;;;;;;;22.00;19.60;;;;;;;4.97;91.19;99248.91;105409;1270;74390;-76
2022/03/16 04:21:30;;;;;;;22.40;19.30;;;;;;;4.98;91.34;99256.09;105320;1271;62172;-76
2022/03/16 04:23:56;;;;;;;19.20;17.10;;;;;;;5.01;91.46;99263.55;105730;1270;61983;-76
2022/03/16 04:26:23;;;;;;;18.50;16.40;;;;;;;5.05;91.42;99260.23;105813;1270;62063;-77
2022/03/16 04:28:49;;;;;;;20.10;17.80;;;;;;;5.11;91.53;99259.64;106674;1268;61973;-76
2022/03/16 04:31:16;;;;;;;19.40;17.30;;;;;;;5.15;91.76;99256.64;108348;1270;59828;-77
2022/03/16 04:33:42;;;;;;;21.40;17.70;;;;;;;5.17;91.83;99260.46;108439;1270;59697;-77
2022/03/16 04:36:09;;;;;;;20.00;18.00;;;;;;;5.21;91.94;99261.15;108337;1270;61477;-78
2022/03/16 04:38:35;;;;;;;22.10;19.70;;;;;;;5.24;92.20;99262.27;107099;1270;60619;-76
2022/03/16 04:41:03;;;;;;;25.40;22.70;;;;;;;5.25;92.66;99266.13;105127;1273;61985;-76
2022/03/16 04:43:30;;;;;;;23.30;20.80;;;;;;;5.20;93.00;99268.79;105310;1270;71874;-76
2022/03/16 04:45:56;;;;;;;19.70;17.80;;;;;;;5.18;93.41;99267.79;105351;1269;61997;-77
2022/03/16 04:48:23;;;;;;;22.20;19.90;;;;;;;5.16;93.55;99268.26;105339;1270;62176;-76
2022/03/16 04:50:49;;;;;;;21.80;19.00;;;;;;;5.16;93.86;99272.30;105306;1270;62358;-79
2022/03/16 04:53:16;;;;;;;22.00;18.70;;;;;;;5.16;94.12;99275.98;105258;1270;62159;-77
2022/03/16 04:55:42;;;;;;;21.00;18.70;;;;;;;5.19;94.50;99276.55;105271;1270;62096;-76
2022/03/16 04:58:09;;;;;;;20.30;18.20;;;;;;;5.21;94.49;99278.97;105282;1271;62042;-75
2022/03/16 05:00:37;;;;;;;23.80;21.40;;;;;;;5.24;94.85;99287.48;105261;1270;61939;-77
2022/03/16 05:03:04;;;;;;;23.40;20.90;;;;;;;5.24;95.01;99288.38;105422;1269;75939;-77
2022/03/16 05:05:31;;;;;;;27.00;23.30;;;;;;;5.22;95.10;99289.30;105279;1270;69318;-78
2022/03/16 05:07:57;;;;;;;26.90;24.10;;;;;;;5.25;95.29;99293.59;105248;1271;74253;-77
2022/03/16 05:10:24;;;;;;;27.40;24.20;;;;;;;5.28;95.27;99296.45;105276;1270;62048;-77
2022/03/16 05:12:50;;;;;;;26.50;23.80;;;;;;;5.30;95.34;99298.48;105265;1270;62482;-76
2022/03/16 05:15:19;;;;;;;23.60;21.30;;;;;;;5.33;95.32;99298.23;105118;1271;74891;-76
2022/03/16 05:17:47;;;;;;;24.70;22.20;;;;;;;5.32;95.65;99303.55;105402;1274;69399;-76
2022/03/16 05:20:15;;;;;;;25.40;22.10;;;;;;;5.33;95.94;99311.44;105250;1271;73174;-76
2022/03/16 05:22:43;;;;;;;26.10;23.10;;;;;;;5.35;96.26;99315.05;105413;1270;62081;-77
2022/03/16 05:25:12;;;;;;;26.50;23.70;;;;;;;5.38;96.41;99313.51;105088;1273;62134;-76
2022/03/16 05:27:39;;;;;;;28.50;25.10;;;;;;;5.40;96.63;99310.80;105311;1271;76480;-75
2022/03/16 05:30:07;;;;;;;30.70;25.00;;;;;;;5.36;96.86;99314.45;105259;1270;69359;-77
2022/03/16 05:32:35;;;;;;;26.60;23.90;;;;;;;5.35;96.99;99313.63;105374;1270;74206;-76
2022/03/16 05:35:03;;;;;;;33.20;29.80;;;;;;;5.36;97.16;99318.01;105300;1271;62124;-76
2022/03/16 05:37:29;;;;;;;29.50;26.40;;;;;;;5.38;97.10;99322.16;105014;1271;62000;-76
2022/03/16 05:39:56;;;;;;;33.10;29.80;;;;;;;5.40;97.13;99324.71;105204;1270;62070;-76
2022/03/16 05:42:22;;;;;;;32.80;29.50;;;;;;;5.45;97.12;99325.91;105206;1270;62231;-76
2022/03/16 05:44:54;;;;;;;32.70;29.20;;;;;;;5.51;97.28;99325.31;105237;1270;62150;-77
2022/03/16 05:47:24;;;;;;;32.00;28.70;;;;;;;5.54;97.06;99329.08;105241;1271;62079;-76
2022/03/16 05:49:54;;;;;;;32.20;28.90;;;;;;;5.53;97.11;99330.71;105290;1271;61983;-75
2022/03/16 05:52:23;;;;;;;33.90;30.20;;;;;;;5.55;97.39;99333.95;105068;1271;76023;-76
2022/03/16 05:54:52;;;;;;;33.20;29.50;;;;;;;5.56;97.55;99336.20;105345;1271;70169;-76
2022/03/16 05:57:19;;;;;;;32.50;29.00;;;;;;;5.56;97.57;99338.53;105250;1271;74149;-77
2022/03/16 05:59:46;;;;;;;31.90;28.70;;;;;;;5.57;97.55;99340.04;104993;1274;62231;-77
2022/03/16 06:02:14;;;;;;;33.60;30.20;;;;;;;5.58;97.62;99344.77;105252;1271;62107;-77
2022/03/16 06:04:43;;;;;;;33.40;29.90;;;;;;;5.59;97.72;99347.20;105325;1271;76357;-75
2022/03/16 06:07:11;;;;;;;31.60;28.30;;;;;;;5.59;97.72;99348.61;105236;1270;69240;-76
2022/03/16 06:09:38;;;;;;;34.30;30.20;;;;;;;5.62;97.75;99352.00;105248;1269;74708;-76
2022/03/16 06:12:05;;;;;;;34.90;31.20;;;;;;;5.64;97.70;99353.31;105255;1271;62811;-77
2022/03/16 06:14:32;;;;;;;37.60;33.50;;;;;;;5.68;98.05;99357.23;105173;1271;62278;-76
2022/03/16 06:16:58;;;;;;;43.80;38.00;;;;;;;5.67;98.07;99359.02;105265;1270;77165;-77
2022/03/16 06:19:25;;;;;;;47.60;42.20;;;;;;;5.62;98.23;99357.44;105275;1271;62026;-77
2022/03/16 06:21:51;;;;;;;49.60;42.20;;;;;;;5.63;98.33;99362.19;105194;1271;72531;-77
2022/03/16 06:24:18;;;;;;;41.10;35.80;;;;;;;5.63;98.55;99363.59;105248;1271;62168;-77
2022/03/16 06:26:44;;;;;;;43.50;38.60;;;;;;;5.62;98.75;99369.80;105268;1271;62155;-77
2022/03/16 06:29:10;;;;;;;46.60;40.00;;;;;;;5.61;98.89;99371.95;105254;1271;62374;-77
2022/03/16 06:31:37;;;;;;;43.50;38.90;;;;;;;5.62;99.41;99378.27;105300;1270;62178;-76
2022/03/16 06:34:03;;;;;;;42.60;38.30;;;;;;;5.61;99.47;99381.65;105282;1271;62185;-76
2022/03/16 06:36:30;;;;;;;39.30;35.30;;;;;;;5.60;99.55;99383.45;104967;1273;62252;-76
2022/03/16 06:38:57;;;;;;;43.20;38.70;;;;;;;5.61;99.79;99383.59;105318;1271;62108;-77
2022/03/16 06:41:24;;;;;;;42.10;37.50;;;;;;;5.68;100.00;99376.63;105289;1271;76889;-75
2022/03/16 06:43:50;;;;;;;43.10;38.50;;;;;;;5.73;100.00;99375.88;105315;1271;68784;-76
2022/03/16 06:46:17;;;;;;;47.10;42.00;;;;;;;5.76;100.00;99377.70;105264;1270;73534;-77
2022/03/16 06:48:43;;;;;;;67.10;57.40;;;;;;;5.76;100.00;99383.18;105238;1270;62055;-77
2022/03/16 06:51:10;;;;;;;83.00;64.60;;;;;;;5.72;100.00;99385.75;105285;1270;62094;-76
2022/03/16 06:53:36;;;;;;;83.50;63.60;;;;;;;5.75;100.00;99381.62;105259;1270;62204;-77
2022/03/16 06:56:03;;;;;;;72.70;56.20;;;;;;;5.79;100.00;99381.45;105273;1270;62164;-77
2022/03/16 06:58:33;;;;;;;66.50;52.70;;;;;;;5.88;100.00;99386.91;105241;1272;74051;-77
2022/03/16 07:00:59;;;;;;;63.50;50.50;;;;;;;5.99;100.00;99392.12;105247;1269;62080;-77
2022/03/16 07:03:25;;;;;;;57.60;47.10;;;;;;;6.12;100.00;99397.90;105219;1270;62116;-77
2022/03/16 07:05:52;;;;;;;54.50;45.70;;;;;;;6.28;100.00;99397.60;104958;1271;62184;-77
2022/03/16 07:08:18;;;;;;;61.20;50.50;;;;;;;6.44;100.00;99395.86;105228;1271;62159;-77
2022/03/16 07:10:45;;;;;;;59.60;48.80;;;;;;;6.55;100.00;99398.88;105223;1271;62063;-77
2022/03/16 07:13:13;;;;;;;53.80;47.10;;;;;;;6.66;99.89;99401.96;104990;1272;62232;-77
2022/03/16 07:15:42;;;;;;;53.80;46.80;;;;;;;6.72;99.63;99404.48;105530;1270;62107;-76
2022/03/16 07:18:09;;;;;;;53.60;47.80;;;;;;;6.77;99.34;99404.25;105263;1271;75898;-76
2022/03/16 07:20:37;;;;;;;43.90;39.00;;;;;;;6.83;99.22;99405.95;105227;1270;68824;-78
2022/03/16 07:23:14;;;;;;;41.00;34.80;;;;;;;6.88;99.07;99406.96;105244;1271;74350;-77
2022/03/16 07:25:47;;;;;;;40.10;34.70;;;;;;;6.89;98.77;99402.17;105276;1271;62377;-77
2022/03/16 07:28:15;;;;;;;41.80;34.60;;;;;;;6.89;98.56;99395.77;105232;1271;62088;-77
2022/03/16 07:30:42;;;;;;;40.50;33.20;;;;;;;6.90;98.54;99394.16;105281;1271;76089;-77
2022/03/16 07:33:10;;;;;;;39.10;30.40;;;;;;;6.91;98.54;99390.73;105213;1271;69488;-77
2022/03/16 07:35:38;;;;;;;34.20;30.10;;;;;;;6.92;98.42;99387.71;105352;1271;74168;-77
2022/03/16 07:38:06;;;;;;;40.30;34.30;;;;;;;6.88;98.36;99385.22;105431;1271;62099;-77
2022/03/16 07:40:35;;;;;;;35.40;30.80;;;;;;;6.85;98.60;99384.33;105266;1271;62111;-77
2022/03/16 07:43:03;;;;;;;39.80;31.90;;;;;;;6.80;98.45;99390.70;105146;1271;76052;-76
2022/03/16 07:45:29;;;;;;;29.60;26.50;;;;;;;6.77;98.46;99397.89;105593;1270;69212;-76
2022/03/16 07:47:56;;;;;;;31.10;27.80;;;;;;;6.75;98.50;99407.90;105288;1271;74180;-76
2022/03/16 07:50:23;;;;;;;28.90;26.00;;;;;;;6.76;98.62;99414.41;105249;1271;62115;-76
2022/03/16 07:52:50;;;;;;;31.70;27.60;;;;;;;6.74;98.64;99420.84;105209;1271;62072;-76
2022/03/16 07:55:16;;;;;;;31.00;27.10;;;;;;;6.71;98.70;99425.20;105282;1270;62069;-76
2022/03/16 07:57:44;;;;;;;32.70;27.00;;;;;;;6.71;98.70;99429.43;105328;1271;70250;-76
2022/03/16 08:00:12;;;;;;;28.80;25.60;;;;;;;6.75;98.66;99435.29;105285;1271;72746;-77
2022/03/16 08:02:40;;;;;;;33.40;26.10;;;;;;;6.77;98.48;99441.72;105332;1270;62098;-76
2022/03/16 08:05:07;;;;;;;26.90;23.40;;;;;;;6.80;98.38;99439.80;105407;1271;62073;-77
2022/03/16 08:07:34;;;;;;;26.40;23.60;;;;;;;6.85;98.33;99435.02;105008;1273;76022;-76
2022/03/16 08:10:00;;;;;;;26.20;23.20;;;;;;;6.92;98.36;99434.86;105311;1270;62181;-77
2022/03/16 08:12:27;;;;;;;28.30;25.40;;;;;;;7.01;98.26;99433.02;105312;1271;62164;-77
2022/03/16 08:14:54;;;;;;;31.80;28.30;;;;;;;7.12;98.12;99428.13;105294;1270;62490;-77
2022/03/16 08:17:20;;;;;;;28.20;25.20;;;;;;;7.16;97.87;99422.79;105321;1270;62133;-76
2022/03/16 08:19:46;;;;;;;30.30;27.10;;;;;;;7.19;97.87;99424.47;105314;1270;62077;-77
2022/03/16 08:22:13;;;;;;;30.40;27.20;;;;;;;7.23;97.82;99420.70;105309;1271;62075;-77
2022/03/16 08:24:39;;;;;;;31.10;26.90;;;;;;;7.38;97.67;99432.41;105312;1270;62046;-77
2022/03/16 08:27:06;;;;;;;33.80;28.50;;;;;;;7.55;97.09;99440.77;105308;1271;62053;-75
2022/03/16 08:29:33;;;;;;;30.00;26.90;;;;;;;7.76;96.70;99440.30;105279;1270;62028;-76
2022/03/16 08:32:00;;;;;;;28.70;25.60;;;;;;;7.93;96.22;99437.56;105330;1271;62160;-75
2022/03/16 08:34:27;;;;;;;27.40;24.70;;;;;;;8.07;95.71;99436.31;105126;1271;69472;-76
2022/03/16 08:36:53;;;;;;;30.20;27.10;;;;;;;8.22;95.03;99438.41;105258;1270;74207;-76
2022/03/16 08:39:20;;;;;;;33.10;29.80;;;;;;;8.29;94.27;99443.87;105237;1270;62109;-76
2022/03/16 08:41:46;;;;;;;35.20;31.60;;;;;;;8.39;94.04;99445.51;105201;1270;62037;-77
2022/03/16 08:44:13;;;;;;;36.50;32.70;;;;;;;8.53;93.75;99448.77;105268;1271;62030;-75
2022/03/16 08:46:39;;;;;;;36.10;32.40;;;;;;;8.67;93.55;99451.22;105269;1271;62187;-76
2022/03/16 08:49:06;;;;;;;32.30;29.00;;;;;;;8.77;93.28;99451.36;104944;1271;62146;-75
2022/03/16 08:51:32;;;;;;;31.60;28.40;;;;;;;8.79;92.71;99448.81;105220;1269;62161;-77
2022/03/16 08:53:58;;;;;;;33.10;29.70;;;;;;;8.81;92.38;99446.97;105230;1270;62170;-75
2022/03/16 08:56:25;;;;;;;32.10;28.80;;;;;;;8.81;92.39;99440.20;105229;1270;62168;-77
2022/03/16 08:58:51;;;;;;;34.10;30.50;;;;;;;8.80;92.00;99437.07;105216;1271;62753;-75
2022/03/16 09:01:18;;;;;;;31.70;28.40;;;;;;;8.83;91.92;99443.29;105029;1271;62404;-77
2022/03/16 09:03:44;;;;;;;33.60;30.20;;;;;;;8.90;91.37;99451.80;105251;1270;62191;-77
2022/03/16 09:06:11;;;;;;;34.70;31.00;;;;;;;8.98;91.12;99456.66;105266;1270;62075;-76
2022/03/16 09:08:37;;;;;;;32.40;29.10;;;;;;;9.07;90.71;99458.16;105276;1270;62017;-75
2022/03/16 09:11:04;;;;;;;33.50;29.80;;;;;;;9.15;90.16;99464.84;105286;1270;62429;-75
2022/03/16 09:13:30;;;;;;;35.00;31.60;;;;;;;9.23;90.00;99469.68;104976;1271;62141;-76
2022/03/16 09:15:58;;;;;;;33.50;30.10;;;;;;;9.33;89.60;99474.84;105240;1270;62079;-77
2022/03/16 09:18:26;;;;;;;34.00;29.30;;;;;;;9.44;89.37;99478.67;105242;1270;62149;-77
2022/03/16 09:20:53;;;;;;;35.40;31.70;;;;;;;9.54;89.00;99477.45;105304;1270;75409;-76
2022/03/16 09:23:19;;;;;;;36.80;32.80;;;;;;;9.64;88.88;99480.77;105277;1270;68893;-77
2022/03/16 09:25:46;;;;;;;36.20;32.30;;;;;;;9.76;88.72;99476.59;105328;1270;62047;-77
2022/03/16 09:28:12;;;;;;;36.10;32.50;;;;;;;9.83;88.44;99476.89;105277;1270;62235;-76
2022/03/16 09:30:39;;;;;;;38.00;34.10;;;;;;;9.85;88.19;99482.09;105278;1271;62063;-75
2022/03/16 09:33:05;;;;;;;38.20;33.90;;;;;;;9.90;87.97;99484.11;105256;1270;62074;-76
2022/03/16 09:35:33;;;;;;;37.40;33.10;;;;;;;9.95;87.49;99487.20;105248;1270;70399;-76
2022/03/16 09:38:00;;;;;;;38.20;33.10;;;;;;;10.01;87.17;99491.85;105212;1271;74288;-77
2022/03/16 09:40:27;;;;;;;39.50;35.40;;;;;;;10.13;87.38;99487.94;105246;1271;62160;-77
2022/03/16 09:42:54;;;;;;;39.70;35.10;;;;;;;10.30;87.09;99493.58;105031;1270;61931;-77
2022/03/16 09:45:22;;;;;;;39.10;35.20;;;;;;;10.44;86.65;99493.13;105223;1270;75996;-76
2022/03/16 09:47:49;;;;;;;41.60;37.10;;;;;;;10.51;86.23;99497.29;105305;1270;70135;-77
2022/03/16 09:50:19;;;;;;;41.70;37.40;;;;;;;10.56;85.99;99499.70;105268;1270;72167;-77
2022/03/16 09:52:47;;;;;;;42.30;37.80;;;;;;;10.56;85.64;99499.70;105333;1270;62512;-76
2022/03/16 09:55:14;;;;;;;40.60;36.30;;;;;;;10.54;85.17;99504.06;105458;1270;62108;-77
2022/03/16 09:57:41;;;;;;;38.90;33.80;;;;;;;10.56;84.95;99503.98;105287;1270;77252;-76
2022/03/16 10:00:12;;;;;;;39.50;35.20;;;;;;;10.59;84.47;99503.59;105364;1270;70454;-75
2022/03/16 10:02:39;;;;;;;37.50;33.10;;;;;;;10.64;84.15;99509.02;105444;1269;73599;-78
2022/03/16 10:05:10;;;;;;;40.30;36.20;;;;;;;10.77;84.30;99510.73;105395;1270;62193;-76
2022/03/16 10:07:37;;;;;;;41.20;36.90;;;;;;;10.89;84.15;99507.37;105458;1270;62117;-76
2022/03/16 10:15:38;;;;;;;41.60;37.00;;;;;;;10.85;83.90;99516.79;105877;1270;73187;-75
2022/03/16 10:18:05;;;;;;;38.10;34.10;;;;;;;10.82;83.53;99512.58;105362;1270;62110;-76
2022/03/16 10:20:34;;;;;;;40.80;36.50;;;;;;;10.73;83.39;99512.20;105314;1270;62673;-77
2022/03/16 10:23:05;;;;;;;39.10;32.30;;;;;;;10.73;83.27;99515.91;105370;1269;74344;-76
2022/03/16 10:25:35;;;;;;;39.70;35.50;;;;;;;10.80;83.10;99516.94;105352;1270;70415;-77
2022/03/16 10:28:10;;;;;;;;;;;;;;;10.97;83.37;99523.73;105470;1270;74984;-76
2022/03/16 10:30:38;;;;;;;41.90;35.00;;;;;;;11.04;82.99;99528.31;105028;1271;62180;-76
2022/03/16 10:33:05;;;;;;;40.00;35.80;;;;;;;11.10;83.11;99532.92;105458;1270;62090;-75
2022/03/16 10:35:33;;;;;;;40.50;34.70;;;;;;;11.17;82.45;99539.82;105299;1270;73625;-77
2022/03/16 10:38:08;;;;;;;37.90;33.80;;;;;;;11.25;81.77;99544.67;105358;1271;67725;-76
2022/03/16 10:40:34;;;;;;;41.40;35.00;;;;;;;11.29;81.52;99545.48;105489;1270;73338;-76
2022/03/16 10:49:04;;;;;;;40.40;32.20;;;;;;;11.46;77.99;99547.66;105091;1271;77263;-75
2022/03/16 10:51:32;;;;;;;34.70;30.10;;;;;;;11.53;75.93;99546.48;105275;1269;69213;-77
2022/03/16 10:54:00;;;;;;;39.20;29.50;;;;;;;11.51;69.82;99543.77;105319;1270;72682;-77
2022/03/16 10:56:28;;;;;;;34.10;29.50;;;;;;;11.53;70.37;99543.50;105351;1269;62140;-77
2022/03/16 10:58:55;;;;;;;36.50;29.30;;;;;;;11.69;70.27;99546.04;105271;1270;62413;-77
2022/03/16 11:01:22;;;;;;;34.10;29.30;;;;;;;11.84;65.26;99551.27;105284;1270;77165;-77
2022/03/16 11:03:50;;;;;;;36.10;29.20;;;;;;;11.83;63.75;99549.95;105243;1269;69850;-76
2022/03/16 11:06:21;;;;;;;33.50;29.10;;;;;;;11.78;61.65;99547.80;105223;1270;73282;-77
2022/03/16 11:08:49;;;;;;;34.80;27.90;;;;;;;11.84;63.12;99543.16;105578;1268;62189;-77
2022/03/16 11:14:04;;;;;;;33.30;28.10;;;;;;;11.99;59.34;99544.33;104947;1270;73538;-78
2022/03/16 11:16:32;;;;;;;31.90;28.30;;;;;;;12.03;57.35;99548.91;105204;1270;69484;-76
2022/03/16 11:19:04;;;;;;;33.90;27.70;;;;;;;12.07;57.63;99551.70;105389;1270;73163;-77
2022/03/16 11:21:44;;;;;;;33.50;28.40;;;;;;;12.16;57.47;99550.71;105554;1271;62091;-78
2022/03/16 11:24:22;;;;;;;34.90;28.00;;;;;;;12.28;56.85;99546.91;105091;1271;61970;-78
2022/03/16 11:27:22;;;;;;;32.80;28.30;;;;;;;12.41;56.56;99545.89;105341;1270;75381;-76
2022/03/16 11:30:08;;;;;;;32.70;29.10;;;;;;;12.57;55.15;99544.66;105271;1270;70444;-77